sensor_id;sensor_type;location;lat;lon;timestamp;temperature;humidity
4647;DHT22;2336;47.822;7.564;2022-07-12T00:00:08;17.70;99.90
4647;DHT22;2336;47.822;7.564;2022-07-12T00:02:36;17.70;99.90
4647;DHT22;2336;47.822;7.564;2022-07-12T00:05:04;17.60;99.90
4647;DHT22;2336;47.822;7.564;2022-07-12T00:07:31;17.60;99.90
4647;DHT22;2336;47.822;7.564;2022-07-12T00:09:57;17.60;99.90
4647;DHT22;2336;47.822;7.564;2022-07-12T00:12:24;17.60;99.90
4647;DHT22;2336;47.822;7.564;2022-07-12T00:14:51;17.60;99.90
4647;DHT22;2336;47.822;7.564;2022-07-12T00:17:18;17.60;99.90
4647;DHT22;2336;47.822;7.564;2022-07-12T00:19:46;17.50;99.90
4647;DHT22;2336;47.822;7.564;2022-07-12T00:22:13;17.50;99.90
4647;DHT22;2336;47.822;7.564;2022-07-12T00:24:39;17.40;99.90
4647;DHT22;2336;47.822;7.564;2022-07-12T00:27:06;17.40;99.90
4647;DHT22;2336;47.822;7.564;2022-07-12T00:29:33;17.40;99.90
4647;DHT22;2336;47.822;7.564;2022-07-12T00:32:00;17.40;99.90
4647;DHT22;2336;47.822;7.564;2022-07-12T00:34:26;17.40;99.90
4647;DHT22;2336;47.822;7.564;2022-07-12T00:36:54;17.30;99.90
4647;DHT22;2336;47.822;7.564;2022-07-12T00:39:21;17.30;99.90
4647;DHT22;2336;47.822;7.564;2022-07-12T00:41:48;17.20;99.90
4647;DHT22;2336;47.822;7.564;2022-07-12T00:44:15;17.20;99.90
4647;DHT22;2336;47.822;7.564;2022-07-12T00:46:43;17.20;99.90
4647;DHT22;2336;47.822;7.564;2022-07-12T00:49:09;17.20;99.90
4647;DHT22;2336;47.822;7.564;2022-07-12T00:51:41;17.20;99.90
4647;DHT22;2336;47.822;7.564;2022-07-12T00:54:09;17.20;99.90
4647;DHT22;2336;47.822;7.564;2022-07-12T00:56:36;17.10;99.90
4647;DHT22;2336;47.822;7.564;2022-07-12T00:59:03;17.10;99.90
4647;DHT22;2336;47.822;7.564;2022-07-12T01:01:30;17.20;99.90
4647;DHT22;2336;47.822;7.564;2022-07-12T01:03:56;17.20;99.90
4647;DHT22;2336;47.822;7.564;2022-07-12T01:06:24;17.20;99.90
4647;DHT22;2336;47.822;7.564;2022-07-12T01:08:52;17.30;99.90
4647;DHT22;2336;47.822;7.564;2022-07-12T01:11:20;17.20;99.90
4647;DHT22;2336;47.822;7.564;2022-07-12T01:13:47;17.20;99.90
4647;DHT22;2336;47.822;7.564;2022-07-12T01:16:17;17.30;99.90
4647;DHT22;2336;47.822;7.564;2022-07-12T01:18:43;17.30;99.90
4647;DHT22;2336;47.822;7.564;2022-07-12T01:21:15;17.20;99.90
4647;DHT22;2336;47.822;7.564;2022-07-12T01:23:46;17.10;99.90
4647;DHT22;2336;47.822;7.564;2022-07-12T01:26:13;17.10;99.90
4647;DHT22;2336;47.822;7.564;2022-07-12T01:28:40;17.00;99.90
4647;DHT22;2336;47.822;7.564;2022-07-12T01:31:06;16.90;99.90
4647;DHT22;2336;47.822;7.564;2022-07-12T01:33:33;16.80;99.90
4647;DHT22;2336;47.822;7.564;2022-07-12T01:36:00;16.80;99.90
4647;DHT22;2336;47.822;7.564;2022-07-12T01:38:27;16.70;99.90
4647;DHT22;2336;47.822;7.564;2022-07-12T01:40:56;16.70;99.90
4647;DHT22;2336;47.822;7.564;2022-07-12T01:43:23;16.60;99.90
4647;DHT22;2336;47.822;7.564;2022-07-12T01:45:49;16.60;99.90
4647;DHT22;2336;47.822;7.564;2022-07-12T01:48:16;16.50;99.90
4647;DHT22;2336;47.822;7.564;2022-07-12T01:50:44;16.50;99.90
4647;DHT22;2336;47.822;7.564;2022-07-12T01:53:11;16.50;99.90
4647;DHT22;2336;47.822;7.564;2022-07-12T01:55:39;16.60;99.90
4647;DHT22;2336;47.822;7.564;2022-07-12T01:58:07;16.60;99.90
4647;DHT22;2336;47.822;7.564;2022-07-12T02:00:34;16.60;99.90
4647;DHT22;2336;47.822;7.564;2022-07-12T02:03:01;16.60;99.90
4647;DHT22;2336;47.822;7.564;2022-07-12T02:05:28;16.50;99.90
4647;DHT22;2336;47.822;7.564;2022-07-12T02:07:54;16.50;99.90
4647;DHT22;2336;47.822;7.564;2022-07-12T02:10:21;16.50;99.90
4647;DHT22;2336;47.822;7.564;2022-07-12T02:12:48;16.50;99.90
4647;DHT22;2336;47.822;7.564;2022-07-12T02:15:16;16.50;99.90
4647;DHT22;2336;47.822;7.564;2022-07-12T02:17:43;16.60;99.90
4647;DHT22;2336;47.822;7.564;2022-07-12T02:20:10;16.50;99.90
4647;DHT22;2336;47.822;7.564;2022-07-12T02:22:38;16.50;99.90
4647;DHT22;2336;47.822;7.564;2022-07-12T02:25:05;16.40;99.90
4647;DHT22;2336;47.822;7.564;2022-07-12T02:27:32;16.30;99.90
4647;DHT22;2336;47.822;7.564;2022-07-12T02:29:59;16.30;99.90
4647;DHT22;2336;47.822;7.564;2022-07-12T02:32:27;16.20;99.90
4647;DHT22;2336;47.822;7.564;2022-07-12T02:34:54;16.10;99.90
4647;DHT22;2336;47.822;7.564;2022-07-12T02:37:20;16.20;99.90
4647;DHT22;2336;47.822;7.564;2022-07-12T02:39:47;16.20;99.90
4647;DHT22;2336;47.822;7.564;2022-07-12T02:42:14;16.20;99.90
4647;DHT22;2336;47.822;7.564;2022-07-12T02:44:40;16.10;99.90
4647;DHT22;2336;47.822;7.564;2022-07-12T02:47:07;16.10;99.90
4647;DHT22;2336;47.822;7.564;2022-07-12T02:49:35;16.10;99.90
4647;DHT22;2336;47.822;7.564;2022-07-12T02:52:02;16.10;99.90
4647;DHT22;2336;47.822;7.564;2022-07-12T02:54:29;16.00;99.90
4647;DHT22;2336;47.822;7.564;2022-07-12T02:56:56;16.00;99.90
4647;DHT22;2336;47.822;7.564;2022-07-12T02:59:23;16.00;99.90
4647;DHT22;2336;47.822;7.564;2022-07-12T03:01:49;16.00;99.90
4647;DHT22;2336;47.822;7.564;2022-07-12T03:04:16;16.00;99.90
4647;DHT22;2336;47.822;7.564;2022-07-12T03:06:44;16.00;99.90
4647;DHT22;2336;47.822;7.564;2022-07-12T03:09:11;16.00;99.90
4647;DHT22;2336;47.822;7.564;2022-07-12T03:11:38;16.00;99.90
4647;DHT22;2336;47.822;7.564;2022-07-12T03:14:04;16.00;99.90
4647;DHT22;2336;47.822;7.564;2022-07-12T03:16:31;16.10;99.90
4647;DHT22;2336;47.822;7.564;2022-07-12T03:18:58;16.00;99.90
4647;DHT22;2336;47.822;7.564;2022-07-12T03:21:24;16.00;99.90
4647;DHT22;2336;47.822;7.564;2022-07-12T03:23:52;15.90;99.90
4647;DHT22;2336;47.822;7.564;2022-07-12T03:26:20;15.90;99.90
4647;DHT22;2336;47.822;7.564;2022-07-12T03:28:47;15.80;99.90
4647;DHT22;2336;47.822;7.564;2022-07-12T03:31:14;15.80;99.90
4647;DHT22;2336;47.822;7.564;2022-07-12T03:33:40;15.80;99.90
4647;DHT22;2336;47.822;7.564;2022-07-12T03:36:07;15.70;99.90
4647;DHT22;2336;47.822;7.564;2022-07-12T03:38:35;15.60;99.90
4647;DHT22;2336;47.822;7.564;2022-07-12T03:41:03;15.60;99.90
4647;DHT22;2336;47.822;7.564;2022-07-12T03:43:30;15.60;99.90
4647;DHT22;2336;47.822;7.564;2022-07-12T03:45:57;15.60;99.90
4647;DHT22;2336;47.822;7.564;2022-07-12T03:48:24;15.60;99.90
4647;DHT22;2336;47.822;7.564;2022-07-12T03:50:50;15.50;99.90
4647;DHT22;2336;47.822;7.564;2022-07-12T03:53:17;15.50;99.90
4647;DHT22;2336;47.822;7.564;2022-07-12T03:55:44;15.40;99.90
4647;DHT22;2336;47.822;7.564;2022-07-12T03:58:12;15.40;99.90
4647;DHT22;2336;47.822;7.564;2022-07-12T04:00:39;15.40;99.90
4647;DHT22;2336;47.822;7.564;2022-07-12T04:03:08;15.30;99.90
4647;DHT22;2336;47.822;7.564;2022-07-12T04:05:35;15.30;99.90
4647;DHT22;2336;47.822;7.564;2022-07-12T04:08:02;15.30;99.90
4647;DHT22;2336;47.822;7.564;2022-07-12T04:10:29;15.30;99.90
4647;DHT22;2336;47.822;7.564;2022-07-12T04:12:56;15.30;99.90
4647;DHT22;2336;47.822;7.564;2022-07-12T04:15:24;15.30;99.90
4647;DHT22;2336;47.822;7.564;2022-07-12T04:17:51;15.30;99.90
4647;DHT22;2336;47.822;7.564;2022-07-12T04:20:17;15.40;99.90
4647;DHT22;2336;47.822;7.564;2022-07-12T04:22:44;15.30;99.90
4647;DHT22;2336;47.822;7.564;2022-07-12T04:25:11;15.30;99.90
4647;DHT22;2336;47.822;7.564;2022-07-12T04:27:38;15.30;99.90
4647;DHT22;2336;47.822;7.564;2022-07-12T04:30:05;15.40;99.90
4647;DHT22;2336;47.822;7.564;2022-07-12T04:32:34;15.40;99.90
4647;DHT22;2336;47.822;7.564;2022-07-12T04:35:01;15.40;99.90
4647;DHT22;2336;47.822;7.564;2022-07-12T04:37:27;15.40;99.90
4647;DHT22;2336;47.822;7.564;2022-07-12T04:39:54;15.50;99.90
4647;DHT22;2336;47.822;7.564;2022-07-12T04:42:21;15.50;99.90
4647;DHT22;2336;47.822;7.564;2022-07-12T04:44:47;15.50;99.90
4647;DHT22;2336;47.822;7.564;2022-07-12T04:47:14;15.50;99.90
4647;DHT22;2336;47.822;7.564;2022-07-12T04:49:42;15.50;99.90
4647;DHT22;2336;47.822;7.564;2022-07-12T04:52:09;15.40;99.90
4647;DHT22;2336;47.822;7.564;2022-07-12T04:54:36;15.40;99.90
4647;DHT22;2336;47.822;7.564;2022-07-12T04:57:03;15.50;99.90
4647;DHT22;2336;47.822;7.564;2022-07-12T04:59:30;15.50;99.90
4647;DHT22;2336;47.822;7.564;2022-07-12T05:01:57;15.50;99.90
4647;DHT22;2336;47.822;7.564;2022-07-12T05:04:23;15.50;99.90
4647;DHT22;2336;47.822;7.564;2022-07-12T05:06:51;15.60;99.90
4647;DHT22;2336;47.822;7.564;2022-07-12T05:09:18;15.60;99.90
4647;DHT22;2336;47.822;7.564;2022-07-12T05:11:45;15.60;99.90
4647;DHT22;2336;47.822;7.564;2022-07-12T05:14:12;15.60;99.90
4647;DHT22;2336;47.822;7.564;2022-07-12T05:16:39;15.60;99.90
4647;DHT22;2336;47.822;7.564;2022-07-12T05:19:05;15.70;99.90
4647;DHT22;2336;47.822;7.564;2022-07-12T05:21:32;15.70;99.90
4647;DHT22;2336;47.822;7.564;2022-07-12T05:24:01;15.80;99.90
4647;DHT22;2336;47.822;7.564;2022-07-12T05:26:28;15.90;99.90
4647;DHT22;2336;47.822;7.564;2022-07-12T05:28:55;15.90;99.90
4647;DHT22;2336;47.822;7.564;2022-07-12T05:31:22;16.00;99.90
4647;DHT22;2336;47.822;7.564;2022-07-12T05:33:49;16.00;99.90
4647;DHT22;2336;47.822;7.564;2022-07-12T05:36:15;16.10;99.90
4647;DHT22;2336;47.822;7.564;2022-07-12T05:38:42;16.10;99.90
4647;DHT22;2336;47.822;7.564;2022-07-12T05:41:10;16.10;99.90
4647;DHT22;2336;47.822;7.564;2022-07-12T05:43:38;16.20;99.90
4647;DHT22;2336;47.822;7.564;2022-07-12T05:46:04;16.20;99.90
4647;DHT22;2336;47.822;7.564;2022-07-12T05:48:31;16.20;99.90
4647;DHT22;2336;47.822;7.564;2022-07-12T05:50:58;16.30;99.90
4647;DHT22;2336;47.822;7.564;2022-07-12T05:53:45;16.40;99.90
4647;DHT22;2336;47.822;7.564;2022-07-12T05:56:12;16.60;99.90
4647;DHT22;2336;47.822;7.564;2022-07-12T05:58:39;16.70;99.90
4647;DHT22;2336;47.822;7.564;2022-07-12T06:01:06;16.70;99.90
4647;DHT22;2336;47.822;7.564;2022-07-12T06:03:33;16.80;99.90
4647;DHT22;2336;47.822;7.564;2022-07-12T06:06:00;16.80;99.90
4647;DHT22;2336;47.822;7.564;2022-07-12T06:08:26;16.90;99.90
4647;DHT22;2336;47.822;7.564;2022-07-12T06:10:53;16.90;99.90
4647;DHT22;2336;47.822;7.564;2022-07-12T06:13:21;17.00;99.90
4647;DHT22;2336;47.822;7.564;2022-07-12T06:15:48;17.10;99.90
4647;DHT22;2336;47.822;7.564;2022-07-12T06:18:15;17.10;99.90
4647;DHT22;2336;47.822;7.564;2022-07-12T06:20:41;17.20;99.90
4647;DHT22;2336;47.822;7.564;2022-07-12T06:23:08;17.30;99.90
4647;DHT22;2336;47.822;7.564;2022-07-12T06:25:35;17.30;99.90
4647;DHT22;2336;47.822;7.564;2022-07-12T06:28:02;17.40;99.90
4647;DHT22;2336;47.822;7.564;2022-07-12T06:30:32;17.40;99.90
4647;DHT22;2336;47.822;7.564;2022-07-12T06:32:58;17.50;99.90
4647;DHT22;2336;47.822;7.564;2022-07-12T06:35:25;17.50;99.90
4647;DHT22;2336;47.822;7.564;2022-07-12T06:37:53;17.50;99.90
4647;DHT22;2336;47.822;7.564;2022-07-12T06:40:20;17.60;99.90
4647;DHT22;2336;47.822;7.564;2022-07-12T06:42:48;17.60;99.90
4647;DHT22;2336;47.822;7.564;2022-07-12T06:45:15;17.70;99.90
4647;DHT22;2336;47.822;7.564;2022-07-12T06:47:43;17.70;99.90
4647;DHT22;2336;47.822;7.564;2022-07-12T06:50:10;17.80;99.90
4647;DHT22;2336;47.822;7.564;2022-07-12T06:52:37;17.90;99.90
4647;DHT22;2336;47.822;7.564;2022-07-12T06:55:04;17.90;99.90
4647;DHT22;2336;47.822;7.564;2022-07-12T06:57:31;18.00;99.90
4647;DHT22;2336;47.822;7.564;2022-07-12T06:59:59;18.00;99.90
4647;DHT22;2336;47.822;7.564;2022-07-12T07:02:25;18.10;99.90
4647;DHT22;2336;47.822;7.564;2022-07-12T07:04:53;18.20;99.90
4647;DHT22;2336;47.822;7.564;2022-07-12T07:07:20;18.20;99.90
4647;DHT22;2336;47.822;7.564;2022-07-12T07:09:47;18.30;99.90
4647;DHT22;2336;47.822;7.564;2022-07-12T07:12:13;18.30;99.90
4647;DHT22;2336;47.822;7.564;2022-07-12T07:14:40;18.40;99.90
4647;DHT22;2336;47.822;7.564;2022-07-12T07:17:07;18.50;99.90
4647;DHT22;2336;47.822;7.564;2022-07-12T07:19:35;18.50;99.90
4647;DHT22;2336;47.822;7.564;2022-07-12T07:22:04;18.60;99.90
4647;DHT22;2336;47.822;7.564;2022-07-12T07:24:30;18.70;99.90
4647;DHT22;2336;47.822;7.564;2022-07-12T07:26:57;18.80;99.90
4647;DHT22;2336;47.822;7.564;2022-07-12T07:29:24;18.90;99.90
4647;DHT22;2336;47.822;7.564;2022-07-12T07:32:09;19.00;99.90
4647;DHT22;2336;47.822;7.564;2022-07-12T07:34:36;19.10;99.90
4647;DHT22;2336;47.822;7.564;2022-07-12T07:37:04;19.20;99.90
4647;DHT22;2336;47.822;7.564;2022-07-12T07:39:31;19.40;99.90
4647;DHT22;2336;47.822;7.564;2022-07-12T07:41:58;19.40;99.90
4647;DHT22;2336;47.822;7.564;2022-07-12T07:44:24;19.50;99.90
4647;DHT22;2336;47.822;7.564;2022-07-12T07:46:51;19.50;99.90
4647;DHT22;2336;47.822;7.564;2022-07-12T07:49:18;19.60;99.90
4647;DHT22;2336;47.822;7.564;2022-07-12T07:51:45;19.60;99.90
4647;DHT22;2336;47.822;7.564;2022-07-12T07:54:13;19.60;99.90
4647;DHT22;2336;47.822;7.564;2022-07-12T07:56:39;19.80;99.90
4647;DHT22;2336;47.822;7.564;2022-07-12T07:59:06;19.90;99.90
4647;DHT22;2336;47.822;7.564;2022-07-12T08:01:34;20.10;99.90
4647;DHT22;2336;47.822;7.564;2022-07-12T08:04:10;20.20;99.90
4647;DHT22;2336;47.822;7.564;2022-07-12T08:06:37;20.20;99.90
4647;DHT22;2336;47.822;7.564;2022-07-12T08:09:05;20.30;99.90
4647;DHT22;2336;47.822;7.564;2022-07-12T08:11:33;20.40;99.90
4647;DHT22;2336;47.822;7.564;2022-07-12T08:14:00;20.50;99.90
4647;DHT22;2336;47.822;7.564;2022-07-12T08:16:27;20.60;99.90
4647;DHT22;2336;47.822;7.564;2022-07-12T08:18:54;20.70;99.90
4647;DHT22;2336;47.822;7.564;2022-07-12T08:21:21;20.80;99.90
4647;DHT22;2336;47.822;7.564;2022-07-12T08:23:48;20.80;99.90
4647;DHT22;2336;47.822;7.564;2022-07-12T08:26:15;20.90;99.90
4647;DHT22;2336;47.822;7.564;2022-07-12T08:28:43;21.00;99.90
4647;DHT22;2336;47.822;7.564;2022-07-12T08:31:10;21.00;99.90
4647;DHT22;2336;47.822;7.564;2022-07-12T08:33:38;21.10;99.90
4647;DHT22;2336;47.822;7.564;2022-07-12T08:36:06;21.00;99.90
4647;DHT22;2336;47.822;7.564;2022-07-12T08:38:33;21.00;99.90
4647;DHT22;2336;47.822;7.564;2022-07-12T08:41:02;21.20;99.90
4647;DHT22;2336;47.822;7.564;2022-07-12T08:43:29;21.30;99.90
4647;DHT22;2336;47.822;7.564;2022-07-12T08:46:02;21.30;99.90
4647;DHT22;2336;47.822;7.564;2022-07-12T08:48:29;21.30;99.90
4647;DHT22;2336;47.822;7.564;2022-07-12T08:51:03;21.40;99.90
4647;DHT22;2336;47.822;7.564;2022-07-12T08:53:30;21.50;99.90
4647;DHT22;2336;47.822;7.564;2022-07-12T08:55:57;21.50;99.90
4647;DHT22;2336;47.822;7.564;2022-07-12T08:58:24;21.50;99.90
4647;DHT22;2336;47.822;7.564;2022-07-12T09:00:51;21.60;99.90
4647;DHT22;2336;47.822;7.564;2022-07-12T09:03:19;21.70;99.90
4647;DHT22;2336;47.822;7.564;2022-07-12T09:05:51;21.80;99.90
4647;DHT22;2336;47.822;7.564;2022-07-12T09:08:23;21.80;99.90
4647;DHT22;2336;47.822;7.564;2022-07-12T09:10:54;21.90;99.90
4647;DHT22;2336;47.822;7.564;2022-07-12T09:13:45;22.00;99.90
4647;DHT22;2336;47.822;7.564;2022-07-12T09:16:12;22.00;99.90
4647;DHT22;2336;47.822;7.564;2022-07-12T09:18:40;22.00;99.90
4647;DHT22;2336;47.822;7.564;2022-07-12T09:21:08;22.00;99.90
4647;DHT22;2336;47.822;7.564;2022-07-12T09:23:35;22.30;99.90
4647;DHT22;2336;47.822;7.564;2022-07-12T09:26:07;22.40;99.90
4647;DHT22;2336;47.822;7.564;2022-07-12T09:28:34;22.30;99.90
4647;DHT22;2336;47.822;7.564;2022-07-12T09:31:01;22.30;99.90
4647;DHT22;2336;47.822;7.564;2022-07-12T09:33:28;22.60;99.90
4647;DHT22;2336;47.822;7.564;2022-07-12T09:36:28;22.60;99.90
4647;DHT22;2336;47.822;7.564;2022-07-12T09:38:55;22.80;99.90
4647;DHT22;2336;47.822;7.564;2022-07-12T09:41:26;22.90;99.90
4647;DHT22;2336;47.822;7.564;2022-07-12T09:43:53;23.00;99.90
4647;DHT22;2336;47.822;7.564;2022-07-12T09:46:20;23.20;99.90
4647;DHT22;2336;47.822;7.564;2022-07-12T09:48:47;23.20;99.90
4647;DHT22;2336;47.822;7.564;2022-07-12T09:51:15;23.30;99.90
4647;DHT22;2336;47.822;7.564;2022-07-12T09:53:45;23.30;99.90
4647;DHT22;2336;47.822;7.564;2022-07-12T09:56:13;23.50;99.90
4647;DHT22;2336;47.822;7.564;2022-07-12T09:58:43;23.70;99.90
4647;DHT22;2336;47.822;7.564;2022-07-12T10:01:15;23.70;99.90
4647;DHT22;2336;47.822;7.564;2022-07-12T10:03:42;23.60;99.90
4647;DHT22;2336;47.822;7.564;2022-07-12T10:06:11;23.70;99.90
4647;DHT22;2336;47.822;7.564;2022-07-12T10:08:38;23.60;99.90
4647;DHT22;2336;47.822;7.564;2022-07-12T10:11:07;23.70;99.90
4647;DHT22;2336;47.822;7.564;2022-07-12T10:13:34;23.70;99.90
4647;DHT22;2336;47.822;7.564;2022-07-12T10:16:02;24.00;99.90
4647;DHT22;2336;47.822;7.564;2022-07-12T10:18:29;24.10;99.90
4647;DHT22;2336;47.822;7.564;2022-07-12T10:20:56;24.30;99.90
4647;DHT22;2336;47.822;7.564;2022-07-12T10:23:31;24.50;99.90
4647;DHT22;2336;47.822;7.564;2022-07-12T10:26:00;24.50;99.90
4647;DHT22;2336;47.822;7.564;2022-07-12T10:28:58;24.60;99.90
4647;DHT22;2336;47.822;7.564;2022-07-12T10:31:28;24.70;99.90
4647;DHT22;2336;47.822;7.564;2022-07-12T10:34:19;24.50;99.90
4647;DHT22;2336;47.822;7.564;2022-07-12T10:37:10;24.60;99.90
4647;DHT22;2336;47.822;7.564;2022-07-12T10:39:37;24.70;99.90
4647;DHT22;2336;47.822;7.564;2022-07-12T10:42:16;25.00;99.90
4647;DHT22;2336;47.822;7.564;2022-07-12T10:44:46;24.90;99.90
4647;DHT22;2336;47.822;7.564;2022-07-12T10:47:15;24.90;99.90
4647;DHT22;2336;47.822;7.564;2022-07-12T10:49:47;24.90;99.90
4647;DHT22;2336;47.822;7.564;2022-07-12T10:52:23;25.10;99.90
4647;DHT22;2336;47.822;7.564;2022-07-12T10:55:16;25.10;99.90
4647;DHT22;2336;47.822;7.564;2022-07-12T10:57:43;25.20;99.70
4647;DHT22;2336;47.822;7.564;2022-07-12T11:00:13;25.50;99.20
4647;DHT22;2336;47.822;7.564;2022-07-12T11:02:41;25.50;99.80
4647;DHT22;2336;47.822;7.564;2022-07-12T11:05:08;25.30;99.90
4647;DHT22;2336;47.822;7.564;2022-07-12T11:07:35;25.30;99.90
4647;DHT22;2336;47.822;7.564;2022-07-12T11:10:03;25.30;99.90
4647;DHT22;2336;47.822;7.564;2022-07-12T11:12:30;25.30;99.90
4647;DHT22;2336;47.822;7.564;2022-07-12T11:14:58;25.40;99.90
4647;DHT22;2336;47.822;7.564;2022-07-12T11:17:27;25.50;99.80
4647;DHT22;2336;47.822;7.564;2022-07-12T11:20:09;25.50;99.30
4647;DHT22;2336;47.822;7.564;2022-07-12T11:22:38;25.60;99.00
4647;DHT22;2336;47.822;7.564;2022-07-12T11:25:07;25.80;98.60
4647;DHT22;2336;47.822;7.564;2022-07-12T11:27:35;25.90;97.90
4647;DHT22;2336;47.822;7.564;2022-07-12T11:30:04;25.90;98.10
4647;DHT22;2336;47.822;7.564;2022-07-12T11:32:37;25.80;98.10
4647;DHT22;2336;47.822;7.564;2022-07-12T11:35:17;25.80;97.80
4647;DHT22;2336;47.822;7.564;2022-07-12T11:37:48;25.80;97.90
4647;DHT22;2336;47.822;7.564;2022-07-12T11:40:20;26.00;97.80
4647;DHT22;2336;47.822;7.564;2022-07-12T11:42:55;26.00;96.70
4647;DHT22;2336;47.822;7.564;2022-07-12T11:45:24;26.10;97.50
4647;DHT22;2336;47.822;7.564;2022-07-12T11:47:52;26.10;97.30
4647;DHT22;2336;47.822;7.564;2022-07-12T11:50:19;26.00;97.90
4647;DHT22;2336;47.822;7.564;2022-07-12T11:52:46;26.10;97.70
4647;DHT22;2336;47.822;7.564;2022-07-12T11:55:13;26.20;97.60
4647;DHT22;2336;47.822;7.564;2022-07-12T11:57:40;26.30;97.30
4647;DHT22;2336;47.822;7.564;2022-07-12T12:00:17;26.30;97.60
4647;DHT22;2336;47.822;7.564;2022-07-12T12:02:44;26.20;97.00
4647;DHT22;2336;47.822;7.564;2022-07-12T12:05:12;26.10;97.30
4647;DHT22;2336;47.822;7.564;2022-07-12T12:07:39;26.20;97.40
4647;DHT22;2336;47.822;7.564;2022-07-12T12:10:10;26.30;97.40
4647;DHT22;2336;47.822;7.564;2022-07-12T12:12:41;26.40;97.40
4647;DHT22;2336;47.822;7.564;2022-07-12T12:15:10;26.60;96.90
4647;DHT22;2336;47.822;7.564;2022-07-12T12:17:43;26.50;97.20
4647;DHT22;2336;47.822;7.564;2022-07-12T12:20:16;26.70;96.50
4647;DHT22;2336;47.822;7.564;2022-07-12T12:22:44;26.80;96.40
4647;DHT22;2336;47.822;7.564;2022-07-12T12:25:12;26.70;95.80
4647;DHT22;2336;47.822;7.564;2022-07-12T12:27:48;26.80;95.80
4647;DHT22;2336;47.822;7.564;2022-07-12T12:30:16;26.80;96.00
4647;DHT22;2336;47.822;7.564;2022-07-12T12:32:44;26.80;95.60
4647;DHT22;2336;47.822;7.564;2022-07-12T12:35:12;27.10;95.60
4647;DHT22;2336;47.822;7.564;2022-07-12T12:37:40;27.10;95.20
4647;DHT22;2336;47.822;7.564;2022-07-12T12:40:08;27.40;94.50
4647;DHT22;2336;47.822;7.564;2022-07-12T12:42:35;27.60;94.00
4647;DHT22;2336;47.822;7.564;2022-07-12T12:45:03;27.40;93.70
4647;DHT22;2336;47.822;7.564;2022-07-12T12:47:29;27.60;94.20
4647;DHT22;2336;47.822;7.564;2022-07-12T12:50:00;27.80;94.20
4647;DHT22;2336;47.822;7.564;2022-07-12T12:52:28;27.80;93.20
4647;DHT22;2336;47.822;7.564;2022-07-12T12:54:57;27.80;92.70
4647;DHT22;2336;47.822;7.564;2022-07-12T12:57:24;27.90;92.70
4647;DHT22;2336;47.822;7.564;2022-07-12T12:59:52;27.80;92.40
4647;DHT22;2336;47.822;7.564;2022-07-12T13:02:19;27.80;92.20
4647;DHT22;2336;47.822;7.564;2022-07-12T13:04:49;27.70;92.30
4647;DHT22;2336;47.822;7.564;2022-07-12T13:07:16;27.90;92.20
4647;DHT22;2336;47.822;7.564;2022-07-12T13:09:43;27.90;92.00
4647;DHT22;2336;47.822;7.564;2022-07-12T13:12:11;28.00;92.30
4647;DHT22;2336;47.822;7.564;2022-07-12T13:14:37;28.00;91.90
4647;DHT22;2336;47.822;7.564;2022-07-12T13:17:04;28.00;91.90
4647;DHT22;2336;47.822;7.564;2022-07-12T13:19:31;28.10;91.50
4647;DHT22;2336;47.822;7.564;2022-07-12T13:21:58;28.20;92.50
4647;DHT22;2336;47.822;7.564;2022-07-12T13:24:25;28.40;91.70
4647;DHT22;2336;47.822;7.564;2022-07-12T13:26:52;28.20;91.30
4647;DHT22;2336;47.822;7.564;2022-07-12T13:29:20;28.30;91.50
4647;DHT22;2336;47.822;7.564;2022-07-12T13:31:46;28.30;90.90
4647;DHT22;2336;47.822;7.564;2022-07-12T13:34:14;28.30;91.10
4647;DHT22;2336;47.822;7.564;2022-07-12T13:36:41;28.30;91.20
4647;DHT22;2336;47.822;7.564;2022-07-12T13:39:08;28.30;90.80
4647;DHT22;2336;47.822;7.564;2022-07-12T13:41:52;28.50;91.00
4647;DHT22;2336;47.822;7.564;2022-07-12T13:44:20;28.80;90.50
4647;DHT22;2336;47.822;7.564;2022-07-12T13:46:48;28.80;90.80
4647;DHT22;2336;47.822;7.564;2022-07-12T13:49:15;28.70;90.20
4647;DHT22;2336;47.822;7.564;2022-07-12T13:51:42;28.60;89.50
4647;DHT22;2336;47.822;7.564;2022-07-12T13:54:08;28.60;90.40
4647;DHT22;2336;47.822;7.564;2022-07-12T13:56:35;28.50;88.80
4647;DHT22;2336;47.822;7.564;2022-07-12T13:59:02;28.40;89.20
4647;DHT22;2336;47.822;7.564;2022-07-12T14:01:30;28.40;90.30
4647;DHT22;2336;47.822;7.564;2022-07-12T14:03:57;28.70;89.70
4647;DHT22;2336;47.822;7.564;2022-07-12T14:06:24;28.60;89.00
4647;DHT22;2336;47.822;7.564;2022-07-12T14:08:51;28.40;88.80
4647;DHT22;2336;47.822;7.564;2022-07-12T14:11:18;28.50;88.50
4647;DHT22;2336;47.822;7.564;2022-07-12T14:13:44;28.40;88.90
4647;DHT22;2336;47.822;7.564;2022-07-12T14:16:11;28.40;88.00
4647;DHT22;2336;47.822;7.564;2022-07-12T14:18:40;28.60;88.90
4647;DHT22;2336;47.822;7.564;2022-07-12T14:21:07;28.40;88.80
4647;DHT22;2336;47.822;7.564;2022-07-12T14:23:34;28.60;88.00
4647;DHT22;2336;47.822;7.564;2022-07-12T14:26:00;28.50;86.90
4647;DHT22;2336;47.822;7.564;2022-07-12T14:28:27;28.60;86.50
4647;DHT22;2336;47.822;7.564;2022-07-12T14:30:54;28.60;86.80
4647;DHT22;2336;47.822;7.564;2022-07-12T14:33:21;28.50;88.00
4647;DHT22;2336;47.822;7.564;2022-07-12T14:35:49;28.70;86.60
4647;DHT22;2336;47.822;7.564;2022-07-12T14:38:16;28.70;85.80
4647;DHT22;2336;47.822;7.564;2022-07-12T14:40:42;28.80;86.30
4647;DHT22;2336;47.822;7.564;2022-07-12T14:43:09;28.80;86.90
4647;DHT22;2336;47.822;7.564;2022-07-12T14:45:37;28.80;85.20
4647;DHT22;2336;47.822;7.564;2022-07-12T14:48:04;28.80;85.80
4647;DHT22;2336;47.822;7.564;2022-07-12T14:50:31;28.80;85.50
4647;DHT22;2336;47.822;7.564;2022-07-12T14:52:59;28.80;85.00
4647;DHT22;2336;47.822;7.564;2022-07-12T14:55:25;28.80;85.00
4647;DHT22;2336;47.822;7.564;2022-07-12T14:57:52;28.90;85.20
4647;DHT22;2336;47.822;7.564;2022-07-12T15:00:19;29.00;84.00
4647;DHT22;2336;47.822;7.564;2022-07-12T15:02:46;29.00;83.90
4647;DHT22;2336;47.822;7.564;2022-07-12T15:05:13;28.90;84.80
4647;DHT22;2336;47.822;7.564;2022-07-12T15:07:40;28.80;83.90
4647;DHT22;2336;47.822;7.564;2022-07-12T15:10:08;28.80;83.30
4647;DHT22;2336;47.822;7.564;2022-07-12T15:12:35;28.70;83.60
4647;DHT22;2336;47.822;7.564;2022-07-12T15:15:02;28.60;83.40
4647;DHT22;2336;47.822;7.564;2022-07-12T15:17:30;28.70;84.10
4647;DHT22;2336;47.822;7.564;2022-07-12T15:19:57;28.80;84.00
4647;DHT22;2336;47.822;7.564;2022-07-12T15:22:24;29.00;83.80
4647;DHT22;2336;47.822;7.564;2022-07-12T15:24:50;29.10;83.30
4647;DHT22;2336;47.822;7.564;2022-07-12T15:27:19;29.10;82.70
4647;DHT22;2336;47.822;7.564;2022-07-12T15:29:45;28.90;83.50
4647;DHT22;2336;47.822;7.564;2022-07-12T15:32:13;29.00;83.90
4647;DHT22;2336;47.822;7.564;2022-07-12T15:34:40;29.00;84.40
4647;DHT22;2336;47.822;7.564;2022-07-12T15:37:06;29.00;83.50
4647;DHT22;2336;47.822;7.564;2022-07-12T15:39:33;28.80;83.40
4647;DHT22;2336;47.822;7.564;2022-07-12T15:42:00;28.80;83.50
4647;DHT22;2336;47.822;7.564;2022-07-12T15:44:29;28.80;83.30
4647;DHT22;2336;47.822;7.564;2022-07-12T15:46:56;28.80;84.30
4647;DHT22;2336;47.822;7.564;2022-07-12T15:49:23;28.60;83.20
4647;DHT22;2336;47.822;7.564;2022-07-12T15:51:50;28.50;83.00
4647;DHT22;2336;47.822;7.564;2022-07-12T15:54:34;28.40;82.90
4647;DHT22;2336;47.822;7.564;2022-07-12T15:57:01;28.50;83.80
4647;DHT22;2336;47.822;7.564;2022-07-12T15:59:30;28.50;84.30
4647;DHT22;2336;47.822;7.564;2022-07-12T16:01:57;28.70;83.40
4647;DHT22;2336;47.822;7.564;2022-07-12T16:04:24;28.90;82.00
4647;DHT22;2336;47.822;7.564;2022-07-12T16:06:51;28.80;81.80